To NAV CANADA Home Page Login to a new session Search on AWWS site Feedback and Comments Disclaimer Vers la page française équivalente Tips FAQ What's new on the site To the Forecasts and Observations / NOTAM section To "File a Flight Plan" website Publications and other links Update of the User's profile FIC Telephone Numbers My Weather Data Folder Route Weather Data Regional Weather Data Local Weather Data To the Forecasts and Observations / NOTAM section
Request Generated 07/28/2016 at 16:23:18 UTC . Weather information available at that time is displayed.

METAR/TAF

VANCOUVER INTL/BC    (show WxCam)

METAR CYVR 281600Z 30016KT 30SM FEW250 20/16 A3013 RMK CI1 SLP205
DENSITY ALT 300FT=
METAR CYVR 281500Z 30014KT 30SM SKC 19/16 A3013 RMK TR CI SLP204
DENSITY ALT 200FT=
METAR CYVR 281400Z 30012G18KT 30SM SKC 19/16 A3012 RMK TR CI SLP200
DENSITY ALT 200FT=

TAF CYVR 281438Z 2815/2918 30012KT P6SM SKC
BECMG 2900/2902 28010KT
RMK NXT FCST BY 281800Z=
Your time UTC time
Weather data provided by Environment Canada and NAV CANADA